Portland, Oregon
Current Conditions -  °F | °C
As of 1:53 PM on Monday 22 Dec 2014 (Local Time) from KPDX Reporting Station
Broken Clouds Broken Clouds  
Wind Chill: 54°   Ceiling: 13000
Heat Index: 54°   Visibility: 10mi
Dew Point: 46°   Wind: 3mph
Humidity: 75%   Direction: 20°NNE
Pressure: 30.36"   Gusts: NA
Location:  45.51°N, 122.67°W
Report Text: KPDX 222153Z 02003KT 10SM FEW018 BKN130 12/08 A3036 RMK AO2 SLP281 T01220078
Loading
Personal Weather Stations






























Interactive Weather Map New forecast layout! Learn more

10-Day Weather Forecast

Advertisements
Track Severe Weather on mobile